Terminal Aerodrome Forecast
Issued by NWS Cleveland, OH

Home | Current Version | Previous Version | Text Only | Print | Product List | Glossary Off
Versions: 1 2 3 4 5 6 7 8 9 10 11 12 13 14 15

171
FTUS41 KCLE 151124
TAFYNG
TAF
KYNG 151124Z 1512/1612 32003KT 6SM BR SCT015 BKN250
      TEMPO 1512/1514 5SM BR BKN015
     FM151500 VRB03KT P6SM BKN250=

USA.gov is the U.S. government's official web portal to all federal, state and local government web resources and services.